sensor_id;sensor_type;location;lat;lon;timestamp;P1;durP1;ratioP1;P2;durP2;ratioP2
40635;SDS011;26642;55.766;37.828;2023-04-28T00:02:05;13.20;;;10.52;;
40635;SDS011;26642;55.766;37.828;2023-04-28T00:04:31;14.65;;;9.88;;
40635;SDS011;26642;55.766;37.828;2023-04-28T00:06:57;12.77;;;10.70;;
40635;SDS011;26642;55.766;37.828;2023-04-28T00:09:23;11.68;;;9.93;;
40635;SDS011;26642;55.766;37.828;2023-04-28T00:11:49;13.27;;;10.70;;
40635;SDS011;26642;55.766;37.828;2023-04-28T00:14:15;15.88;;;11.13;;
40635;SDS011;26642;55.766;37.828;2023-04-28T00:16:41;16.42;;;11.07;;
40635;SDS011;26642;55.766;37.828;2023-04-28T00:19:07;16.83;;;10.85;;
40635;SDS011;26642;55.766;37.828;2023-04-28T00:21:33;13.55;;;10.93;;
40635;SDS011;26642;55.766;37.828;2023-04-28T00:23:59;13.63;;;10.15;;
40635;SDS011;26642;55.766;37.828;2023-04-28T00:26:25;17.50;;;10.85;;
40635;SDS011;26642;55.766;37.828;2023-04-28T00:28:50;16.05;;;10.55;;
40635;SDS011;26642;55.766;37.828;2023-04-28T00:31:16;12.82;;;9.93;;
40635;SDS011;26642;55.766;37.828;2023-04-28T00:33:42;22.98;;;10.65;;
40635;SDS011;26642;55.766;37.828;2023-04-28T00:36:09;14.90;;;10.50;;
40635;SDS011;26642;55.766;37.828;2023-04-28T00:38:35;11.90;;;9.70;;
40635;SDS011;26642;55.766;37.828;2023-04-28T00:41:02;16.30;;;9.82;;
40635;SDS011;26642;55.766;37.828;2023-04-28T00:43:28;14.48;;;9.88;;
40635;SDS011;26642;55.766;37.828;2023-04-28T00:45:54;11.77;;;9.65;;
40635;SDS011;26642;55.766;37.828;2023-04-28T00:48:20;14.10;;;9.88;;
40635;SDS011;26642;55.766;37.828;2023-04-28T00:50:48;12.90;;;10.13;;
40635;SDS011;26642;55.766;37.828;2023-04-28T00:53:14;11.90;;;8.90;;
40635;SDS011;26642;55.766;37.828;2023-04-28T00:55:40;11.95;;;9.18;;
40635;SDS011;26642;55.766;37.828;2023-04-28T00:58:06;15.43;;;9.60;;
40635;SDS011;26642;55.766;37.828;2023-04-28T01:00:33;12.45;;;9.48;;
40635;SDS011;26642;55.766;37.828;2023-04-28T01:03:00;14.43;;;10.00;;
40635;SDS011;26642;55.766;37.828;2023-04-28T01:05:29;14.93;;;9.68;;
40635;SDS011;26642;55.766;37.828;2023-04-28T01:07:56;11.90;;;10.13;;
40635;SDS011;26642;55.766;37.828;2023-04-28T01:10:22;14.75;;;9.82;;
40635;SDS011;26642;55.766;37.828;2023-04-28T01:12:47;16.15;;;9.70;;
40635;SDS011;26642;55.766;37.828;2023-04-28T01:15:18;11.77;;;9.95;;
40635;SDS011;26642;55.766;37.828;2023-04-28T01:17:46;11.90;;;10.30;;
40635;SDS011;26642;55.766;37.828;2023-04-28T01:20:13;13.60;;;10.50;;
40635;SDS011;26642;55.766;37.828;2023-04-28T01:22:39;15.43;;;10.27;;
40635;SDS011;26642;55.766;37.828;2023-04-28T01:25:06;11.88;;;9.82;;
40635;SDS011;26642;55.766;37.828;2023-04-28T01:27:33;12.75;;;10.38;;
40635;SDS011;26642;55.766;37.828;2023-04-28T01:29:59;17.60;;;10.50;;
40635;SDS011;26642;55.766;37.828;2023-04-28T01:32:25;13.05;;;10.25;;
40635;SDS011;26642;55.766;37.828;2023-04-28T01:34:51;13.23;;;9.85;;
40635;SDS011;26642;55.766;37.828;2023-04-28T01:37:17;14.68;;;10.45;;
40635;SDS011;26642;55.766;37.828;2023-04-28T01:39:43;14.23;;;9.93;;
40635;SDS011;26642;55.766;37.828;2023-04-28T01:42:09;14.15;;;9.88;;
40635;SDS011;26642;55.766;37.828;2023-04-28T01:44:35;16.45;;;9.93;;
40635;SDS011;26642;55.766;37.828;2023-04-28T01:47:01;11.95;;;9.30;;
40635;SDS011;26642;55.766;37.828;2023-04-28T01:49:27;14.30;;;9.73;;
40635;SDS011;26642;55.766;37.828;2023-04-28T01:51:53;12.18;;;8.95;;
40635;SDS011;26642;55.766;37.828;2023-04-28T01:54:19;12.38;;;8.60;;
40635;SDS011;26642;55.766;37.828;2023-04-28T01:56:45;9.73;;;8.18;;
40635;SDS011;26642;55.766;37.828;2023-04-28T01:59:13;10.82;;;8.65;;
40635;SDS011;26642;55.766;37.828;2023-04-28T02:01:40;9.60;;;8.45;;
40635;SDS011;26642;55.766;37.828;2023-04-28T02:04:06;14.15;;;8.23;;
40635;SDS011;26642;55.766;37.828;2023-04-28T02:06:34;13.23;;;9.15;;
40635;SDS011;26642;55.766;37.828;2023-04-28T02:09:00;12.65;;;9.15;;
40635;SDS011;26642;55.766;37.828;2023-04-28T02:11:26;11.30;;;8.82;;
40635;SDS011;26642;55.766;37.828;2023-04-28T02:13:55;12.25;;;9.13;;
40635;SDS011;26642;55.766;37.828;2023-04-28T02:16:21;14.90;;;9.55;;
40635;SDS011;26642;55.766;37.828;2023-04-28T02:18:49;10.68;;;9.57;;
40635;SDS011;26642;55.766;37.828;2023-04-28T02:21:15;14.48;;;9.40;;
40635;SDS011;26642;55.766;37.828;2023-04-28T02:23:43;14.93;;;10.43;;
40635;SDS011;26642;55.766;37.828;2023-04-28T02:26:09;12.15;;;8.88;;
40635;SDS011;26642;55.766;37.828;2023-04-28T02:28:35;12.68;;;9.10;;
40635;SDS011;26642;55.766;37.828;2023-04-28T02:31:04;12.02;;;9.10;;
40635;SDS011;26642;55.766;37.828;2023-04-28T02:33:34;14.20;;;10.00;;
40635;SDS011;26642;55.766;37.828;2023-04-28T02:36:02;14.98;;;9.40;;
40635;SDS011;26642;55.766;37.828;2023-04-28T02:38:28;11.55;;;9.82;;
40635;SDS011;26642;55.766;37.828;2023-04-28T02:40:58;14.15;;;9.70;;
40635;SDS011;26642;55.766;37.828;2023-04-28T02:43:26;12.90;;;9.02;;
40635;SDS011;26642;55.766;37.828;2023-04-28T02:45:53;15.85;;;9.95;;
40635;SDS011;26642;55.766;37.828;2023-04-28T02:48:19;12.35;;;9.23;;
40635;SDS011;26642;55.766;37.828;2023-04-28T02:50:45;16.33;;;9.88;;
40635;SDS011;26642;55.766;37.828;2023-04-28T02:53:11;14.35;;;9.50;;
40635;SDS011;26642;55.766;37.828;2023-04-28T02:55:37;13.93;;;9.10;;
40635;SDS011;26642;55.766;37.828;2023-04-28T02:58:03;14.88;;;8.70;;
40635;SDS011;26642;55.766;37.828;2023-04-28T03:00:30;14.82;;;9.18;;
40635;SDS011;26642;55.766;37.828;2023-04-28T03:02:56;11.43;;;8.70;;
40635;SDS011;26642;55.766;37.828;2023-04-28T03:05:21;16.25;;;9.45;;
40635;SDS011;26642;55.766;37.828;2023-04-28T03:07:48;11.73;;;9.25;;
40635;SDS011;26642;55.766;37.828;2023-04-28T03:10:14;13.23;;;9.30;;
40635;SDS011;26642;55.766;37.828;2023-04-28T03:12:40;11.07;;;8.73;;
40635;SDS011;26642;55.766;37.828;2023-04-28T03:15:06;9.90;;;8.30;;
40635;SDS011;26642;55.766;37.828;2023-04-28T03:17:35;12.77;;;8.75;;
40635;SDS011;26642;55.766;37.828;2023-04-28T03:20:03;10.93;;;9.07;;
40635;SDS011;26642;55.766;37.828;2023-04-28T03:22:30;10.38;;;9.23;;
40635;SDS011;26642;55.766;37.828;2023-04-28T03:24:56;12.85;;;8.63;;
40635;SDS011;26642;55.766;37.828;2023-04-28T03:27:24;13.02;;;8.88;;
40635;SDS011;26642;55.766;37.828;2023-04-28T03:29:52;10.57;;;8.73;;
40635;SDS011;26642;55.766;37.828;2023-04-28T03:32:18;13.23;;;9.30;;
40635;SDS011;26642;55.766;37.828;2023-04-28T03:34:44;14.48;;;9.18;;
40635;SDS011;26642;55.766;37.828;2023-04-28T03:37:10;12.95;;;8.80;;
40635;SDS011;26642;55.766;37.828;2023-04-28T03:39:36;13.25;;;9.25;;
40635;SDS011;26642;55.766;37.828;2023-04-28T03:42:02;15.18;;;9.13;;
40635;SDS011;26642;55.766;37.828;2023-04-28T03:44:57;11.63;;;8.73;;
40635;SDS011;26642;55.766;37.828;2023-04-28T03:47:23;10.73;;;8.30;;
40635;SDS011;26642;55.766;37.828;2023-04-28T03:49:50;12.15;;;8.38;;
40635;SDS011;26642;55.766;37.828;2023-04-28T03:52:16;13.05;;;8.18;;
40635;SDS011;26642;55.766;37.828;2023-04-28T03:54:42;13.15;;;7.90;;
40635;SDS011;26642;55.766;37.828;2023-04-28T03:57:08;12.77;;;7.57;;
40635;SDS011;26642;55.766;37.828;2023-04-28T03:59:34;11.07;;;8.38;;
40635;SDS011;26642;55.766;37.828;2023-04-28T04:02:00;11.13;;;7.97;;
40635;SDS011;26642;55.766;37.828;2023-04-28T04:04:27;9.98;;;7.57;;
40635;SDS011;26642;55.766;37.828;2023-04-28T04:06:54;11.30;;;8.32;;
40635;SDS011;26642;55.766;37.828;2023-04-28T04:09:20;12.32;;;7.75;;
40635;SDS011;26642;55.766;37.828;2023-04-28T04:11:46;8.82;;;7.60;;
40635;SDS011;26642;55.766;37.828;2023-04-28T04:14:12;9.60;;;7.32;;
40635;SDS011;26642;55.766;37.828;2023-04-28T04:16:38;12.00;;;8.25;;
40635;SDS011;26642;55.766;37.828;2023-04-28T04:19:05;12.73;;;8.55;;
40635;SDS011;26642;55.766;37.828;2023-04-28T04:21:39;14.40;;;7.95;;
40635;SDS011;26642;55.766;37.828;2023-04-28T04:24:06;12.15;;;8.77;;
40635;SDS011;26642;55.766;37.828;2023-04-28T04:26:32;11.45;;;8.50;;
40635;SDS011;26642;55.766;37.828;2023-04-28T04:28:58;13.75;;;8.93;;
40635;SDS011;26642;55.766;37.828;2023-04-28T04:31:24;11.32;;;8.20;;
40635;SDS011;26642;55.766;37.828;2023-04-28T04:33:50;15.25;;;8.38;;
40635;SDS011;26642;55.766;37.828;2023-04-28T04:36:18;11.98;;;8.55;;
40635;SDS011;26642;55.766;37.828;2023-04-28T04:38:44;12.88;;;8.15;;
40635;SDS011;26642;55.766;37.828;2023-04-28T04:41:14;10.88;;;8.05;;
40635;SDS011;26642;55.766;37.828;2023-04-28T04:43:41;13.00;;;8.18;;
40635;SDS011;26642;55.766;37.828;2023-04-28T04:46:07;12.20;;;7.93;;
40635;SDS011;26642;55.766;37.828;2023-04-28T04:48:33;12.63;;;9.23;;
40635;SDS011;26642;55.766;37.828;2023-04-28T04:50:59;11.52;;;8.55;;
40635;SDS011;26642;55.766;37.828;2023-04-28T04:53:25;13.38;;;8.45;;
40635;SDS011;26642;55.766;37.828;2023-04-28T04:55:53;13.75;;;8.93;;
40635;SDS011;26642;55.766;37.828;2023-04-28T04:58:20;12.77;;;8.88;;
40635;SDS011;26642;55.766;37.828;2023-04-28T05:01:06;12.35;;;8.13;;
40635;SDS011;26642;55.766;37.828;2023-04-28T05:03:32;12.05;;;8.32;;
40635;SDS011;26642;55.766;37.828;2023-04-28T05:05:58;13.18;;;8.63;;
40635;SDS011;26642;55.766;37.828;2023-04-28T05:08:36;13.15;;;9.30;;
40635;SDS011;26642;55.766;37.828;2023-04-28T05:11:02;14.00;;;8.45;;
40635;SDS011;26642;55.766;37.828;2023-04-28T05:13:29;11.75;;;8.27;;
40635;SDS011;26642;55.766;37.828;2023-04-28T05:15:59;11.73;;;8.07;;
40635;SDS011;26642;55.766;37.828;2023-04-28T05:19:01;12.32;;;7.63;;
40635;SDS011;26642;55.766;37.828;2023-04-28T05:21:27;11.60;;;7.78;;
40635;SDS011;26642;55.766;37.828;2023-04-28T05:23:53;10.85;;;7.10;;
40635;SDS011;26642;55.766;37.828;2023-04-28T05:26:19;11.20;;;6.78;;
40635;SDS011;26642;55.766;37.828;2023-04-28T05:28:45;11.07;;;6.50;;
40635;SDS011;26642;55.766;37.828;2023-04-28T05:31:11;10.85;;;6.85;;
40635;SDS011;26642;55.766;37.828;2023-04-28T05:33:37;9.90;;;6.13;;
40635;SDS011;26642;55.766;37.828;2023-04-28T05:36:03;9.70;;;6.47;;
40635;SDS011;26642;55.766;37.828;2023-04-28T05:38:30;8.27;;;6.63;;
40635;SDS011;26642;55.766;37.828;2023-04-28T05:40:58;9.55;;;6.25;;
40635;SDS011;26642;55.766;37.828;2023-04-28T05:43:24;8.30;;;6.30;;
40635;SDS011;26642;55.766;37.828;2023-04-28T05:45:50;10.45;;;6.72;;
40635;SDS011;26642;55.766;37.828;2023-04-28T05:48:17;8.55;;;6.47;;
40635;SDS011;26642;55.766;37.828;2023-04-28T05:50:44;10.63;;;6.55;;
40635;SDS011;26642;55.766;37.828;2023-04-28T05:53:10;8.00;;;6.22;;
40635;SDS011;26642;55.766;37.828;2023-04-28T05:55:36;8.18;;;6.35;;
40635;SDS011;26642;55.766;37.828;2023-04-28T05:58:03;11.13;;;6.50;;
40635;SDS011;26642;55.766;37.828;2023-04-28T06:00:29;11.10;;;5.78;;
40635;SDS011;26642;55.766;37.828;2023-04-28T06:02:58;10.27;;;6.65;;
40635;SDS011;26642;55.766;37.828;2023-04-28T06:05:25;10.48;;;7.18;;
40635;SDS011;26642;55.766;37.828;2023-04-28T06:07:53;10.00;;;6.60;;
40635;SDS011;26642;55.766;37.828;2023-04-28T06:10:20;9.48;;;6.25;;
40635;SDS011;26642;55.766;37.828;2023-04-28T06:12:50;7.45;;;5.47;;
40635;SDS011;26642;55.766;37.828;2023-04-28T06:15:16;15.63;;;9.35;;
40635;SDS011;26642;55.766;37.828;2023-04-28T06:17:42;11.13;;;7.78;;
40635;SDS011;26642;55.766;37.828;2023-04-28T06:20:08;11.38;;;6.95;;
40635;SDS011;26642;55.766;37.828;2023-04-28T06:22:36;12.05;;;6.85;;
40635;SDS011;26642;55.766;37.828;2023-04-28T06:25:02;8.40;;;6.47;;
40635;SDS011;26642;55.766;37.828;2023-04-28T06:27:37;12.13;;;6.22;;
40635;SDS011;26642;55.766;37.828;2023-04-28T06:30:03;13.70;;;6.57;;
40635;SDS011;26642;55.766;37.828;2023-04-28T06:32:31;8.65;;;6.32;;
40635;SDS011;26642;55.766;37.828;2023-04-28T06:34:58;9.65;;;6.43;;
40635;SDS011;26642;55.766;37.828;2023-04-28T06:37:25;8.20;;;6.30;;
40635;SDS011;26642;55.766;37.828;2023-04-28T06:39:51;8.50;;;6.53;;
40635;SDS011;26642;55.766;37.828;2023-04-28T06:42:17;8.70;;;5.50;;
40635;SDS011;26642;55.766;37.828;2023-04-28T06:44:51;10.75;;;6.78;;
40635;SDS011;26642;55.766;37.828;2023-04-28T06:47:18;10.88;;;6.43;;
40635;SDS011;26642;55.766;37.828;2023-04-28T06:49:45;7.93;;;5.47;;
40635;SDS011;26642;55.766;37.828;2023-04-28T06:52:14;10.68;;;6.35;;
40635;SDS011;26642;55.766;37.828;2023-04-28T06:54:40;10.63;;;5.60;;
40635;SDS011;26642;55.766;37.828;2023-04-28T06:57:07;9.00;;;5.85;;
40635;SDS011;26642;55.766;37.828;2023-04-28T06:59:33;12.13;;;6.63;;
40635;SDS011;26642;55.766;37.828;2023-04-28T07:01:59;10.75;;;6.82;;
40635;SDS011;26642;55.766;37.828;2023-04-28T07:04:25;9.65;;;5.97;;
40635;SDS011;26642;55.766;37.828;2023-04-28T07:06:51;7.95;;;5.43;;
40635;SDS011;26642;55.766;37.828;2023-04-28T07:09:17;7.57;;;5.00;;
40635;SDS011;26642;55.766;37.828;2023-04-28T07:11:44;7.50;;;4.57;;
40635;SDS011;26642;55.766;37.828;2023-04-28T07:14:10;5.78;;;4.45;;
40635;SDS011;26642;55.766;37.828;2023-04-28T07:16:36;6.38;;;4.25;;
40635;SDS011;26642;55.766;37.828;2023-04-28T07:19:02;7.03;;;4.20;;
40635;SDS011;26642;55.766;37.828;2023-04-28T07:21:28;4.50;;;3.85;;
40635;SDS011;26642;55.766;37.828;2023-04-28T07:23:54;5.35;;;4.07;;
40635;SDS011;26642;55.766;37.828;2023-04-28T07:26:23;6.13;;;4.60;;
40635;SDS011;26642;55.766;37.828;2023-04-28T07:28:49;6.43;;;4.80;;
40635;SDS011;26642;55.766;37.828;2023-04-28T07:31:15;5.88;;;4.63;;
40635;SDS011;26642;55.766;37.828;2023-04-28T07:33:41;5.68;;;3.92;;
40635;SDS011;26642;55.766;37.828;2023-04-28T07:36:07;5.32;;;4.07;;
40635;SDS011;26642;55.766;37.828;2023-04-28T07:38:34;5.55;;;4.15;;
40635;SDS011;26642;55.766;37.828;2023-04-28T07:41:01;4.50;;;4.10;;
40635;SDS011;26642;55.766;37.828;2023-04-28T07:43:28;6.50;;;3.85;;
40635;SDS011;26642;55.766;37.828;2023-04-28T07:45:54;5.55;;;4.32;;
40635;SDS011;26642;55.766;37.828;2023-04-28T07:48:20;5.50;;;4.13;;
40635;SDS011;26642;55.766;37.828;2023-04-28T07:50:46;6.47;;;4.20;;
40635;SDS011;26642;55.766;37.828;2023-04-28T07:53:12;6.82;;;4.40;;
40635;SDS011;26642;55.766;37.828;2023-04-28T07:55:38;5.95;;;4.53;;
40635;SDS011;26642;55.766;37.828;2023-04-28T07:58:06;5.32;;;4.82;;
40635;SDS011;26642;55.766;37.828;2023-04-28T08:00:32;6.57;;;4.60;;
40635;SDS011;26642;55.766;37.828;2023-04-28T08:02:58;5.85;;;4.97;;
40635;SDS011;26642;55.766;37.828;2023-04-28T08:05:25;6.75;;;4.90;;
40635;SDS011;26642;55.766;37.828;2023-04-28T08:07:50;5.80;;;5.20;;
40635;SDS011;26642;55.766;37.828;2023-04-28T08:10:16;7.22;;;4.93;;
40635;SDS011;26642;55.766;37.828;2023-04-28T08:12:42;6.80;;;5.20;;
40635;SDS011;26642;55.766;37.828;2023-04-28T08:15:10;6.53;;;5.38;;
40635;SDS011;26642;55.766;37.828;2023-04-28T08:17:36;6.25;;;5.28;;
40635;SDS011;26642;55.766;37.828;2023-04-28T08:20:02;7.20;;;4.90;;
40635;SDS011;26642;55.766;37.828;2023-04-28T08:22:30;5.72;;;4.43;;
40635;SDS011;26642;55.766;37.828;2023-04-28T08:24:56;5.32;;;4.35;;
40635;SDS011;26642;55.766;37.828;2023-04-28T08:27:21;8.70;;;5.25;;
40635;SDS011;26642;55.766;37.828;2023-04-28T08:29:49;7.47;;;4.80;;
40635;SDS011;26642;55.766;37.828;2023-04-28T08:32:16;11.25;;;4.90;;
40635;SDS011;26642;55.766;37.828;2023-04-28T08:34:42;9.30;;;4.68;;
40635;SDS011;26642;55.766;37.828;2023-04-28T08:37:08;7.72;;;4.38;;
40635;SDS011;26642;55.766;37.828;2023-04-28T08:39:34;5.82;;;4.53;;
40635;SDS011;26642;55.766;37.828;2023-04-28T08:42:03;8.75;;;4.85;;
40635;SDS011;26642;55.766;37.828;2023-04-28T08:44:36;6.85;;;4.70;;
40635;SDS011;26642;55.766;37.828;2023-04-28T08:47:04;6.25;;;4.10;;
40635;SDS011;26642;55.766;37.828;2023-04-28T08:49:39;6.97;;;4.15;;
40635;SDS011;26642;55.766;37.828;2023-04-28T08:52:09;8.75;;;4.20;;
40635;SDS011;26642;55.766;37.828;2023-04-28T08:54:38;5.28;;;4.05;;
40635;SDS011;26642;55.766;37.828;2023-04-28T08:57:07;5.93;;;3.80;;
40635;SDS011;26642;55.766;37.828;2023-04-28T08:59:37;5.78;;;4.30;;
40635;SDS011;26642;55.766;37.828;2023-04-28T09:02:04;8.90;;;4.57;;
40635;SDS011;26642;55.766;37.828;2023-04-28T09:04:31;4.80;;;3.65;;
40635;SDS011;26642;55.766;37.828;2023-04-28T09:06:57;6.90;;;4.97;;
40635;SDS011;26642;55.766;37.828;2023-04-28T09:09:24;10.73;;;5.38;;
40635;SDS011;26642;55.766;37.828;2023-04-28T09:14:18;7.10;;;5.10;;
40635;SDS011;26642;55.766;37.828;2023-04-28T09:16:44;6.30;;;4.40;;
40635;SDS011;26642;55.766;37.828;2023-04-28T09:19:10;5.78;;;4.20;;
40635;SDS011;26642;55.766;37.828;2023-04-28T09:21:46;5.97;;;4.43;;
40635;SDS011;26642;55.766;37.828;2023-04-28T09:24:32;6.60;;;4.88;;
40635;SDS011;26642;55.766;37.828;2023-04-28T09:26:58;5.38;;;4.18;;
40635;SDS011;26642;55.766;37.828;2023-04-28T09:29:26;8.90;;;5.07;;
40635;SDS011;26642;55.766;37.828;2023-04-28T09:31:53;6.95;;;4.90;;
40635;SDS011;26642;55.766;37.828;2023-04-28T09:34:20;6.65;;;5.03;;
40635;SDS011;26642;55.766;37.828;2023-04-28T09:36:46;7.28;;;5.30;;
40635;SDS011;26642;55.766;37.828;2023-04-28T09:39:12;7.95;;;5.90;;
40635;SDS011;26642;55.766;37.828;2023-04-28T09:41:39;7.30;;;5.30;;
40635;SDS011;26642;55.766;37.828;2023-04-28T09:44:13;8.55;;;5.70;;
40635;SDS011;26642;55.766;37.828;2023-04-28T09:46:41;7.72;;;5.57;;
40635;SDS011;26642;55.766;37.828;2023-04-28T09:49:09;7.57;;;5.40;;
40635;SDS011;26642;55.766;37.828;2023-04-28T09:51:35;6.93;;;4.97;;
40635;SDS011;26642;55.766;37.828;2023-04-28T09:54:01;10.27;;;5.70;;
40635;SDS011;26642;55.766;37.828;2023-04-28T09:56:28;6.60;;;5.22;;
40635;SDS011;26642;55.766;37.828;2023-04-28T09:58:56;7.00;;;5.70;;
40635;SDS011;26642;55.766;37.828;2023-04-28T10:01:26;7.18;;;5.60;;
40635;SDS011;26642;55.766;37.828;2023-04-28T10:03:56;8.80;;;6.18;;
40635;SDS011;26642;55.766;37.828;2023-04-28T10:06:27;9.65;;;5.90;;
40635;SDS011;26642;55.766;37.828;2023-04-28T10:08:54;11.77;;;9.77;;
40635;SDS011;26642;55.766;37.828;2023-04-28T10:11:22;23.38;;;18.08;;
40635;SDS011;26642;55.766;37.828;2023-04-28T10:13:50;16.52;;;11.88;;
40635;SDS011;26642;55.766;37.828;2023-04-28T10:16:17;10.55;;;9.45;;
40635;SDS011;26642;55.766;37.828;2023-04-28T10:18:44;9.38;;;8.38;;
40635;SDS011;26642;55.766;37.828;2023-04-28T10:21:10;10.73;;;8.75;;
40635;SDS011;26642;55.766;37.828;2023-04-28T10:24:02;10.18;;;8.43;;
40635;SDS011;26642;55.766;37.828;2023-04-28T10:27:15;9.88;;;8.20;;
40635;SDS011;26642;55.766;37.828;2023-04-28T10:29:22;9.82;;;7.55;;
40635;SDS011;26642;55.766;37.828;2023-04-28T10:34:41;8.30;;;7.45;;
40635;SDS011;26642;55.766;37.828;2023-04-28T10:37:07;9.50;;;8.15;;
40635;SDS011;26642;55.766;37.828;2023-04-28T10:39:33;8.45;;;7.65;;
40635;SDS011;26642;55.766;37.828;2023-04-28T10:41:59;9.18;;;7.53;;
40635;SDS011;26642;55.766;37.828;2023-04-28T10:46:59;9.30;;;7.63;;
40635;SDS011;26642;55.766;37.828;2023-04-28T11:00:40;9.55;;;7.70;;
40635;SDS011;26642;55.766;37.828;2023-04-28T11:09:02;8.00;;;7.20;;
40635;SDS011;26642;55.766;37.828;2023-04-28T11:19:32;8.77;;;6.95;;
40635;SDS011;26642;55.766;37.828;2023-04-28T11:22:01;10.88;;;8.10;;
40635;SDS011;26642;55.766;37.828;2023-04-28T11:24:28;11.05;;;8.25;;
40635;SDS011;26642;55.766;37.828;2023-04-28T11:26:56;9.50;;;7.45;;
40635;SDS011;26642;55.766;37.828;2023-04-28T11:32:08;9.95;;;8.95;;
40635;SDS011;26642;55.766;37.828;2023-04-28T11:34:35;11.93;;;8.88;;
40635;SDS011;26642;55.766;37.828;2023-04-28T11:37:01;9.88;;;8.90;;
40635;SDS011;26642;55.766;37.828;2023-04-28T11:39:33;13.60;;;9.88;;
40635;SDS011;26642;55.766;37.828;2023-04-28T11:42:00;10.98;;;8.73;;
40635;SDS011;26642;55.766;37.828;2023-04-28T11:44:33;14.35;;;9.43;;
40635;SDS011;26642;55.766;37.828;2023-04-28T11:47:00;10.25;;;9.05;;
40635;SDS011;26642;55.766;37.828;2023-04-28T11:52:04;10.90;;;8.93;;
40635;SDS011;26642;55.766;37.828;2023-04-28T11:54:40;10.20;;;8.65;;
40635;SDS011;26642;55.766;37.828;2023-04-28T12:02:09;8.70;;;7.80;;
40635;SDS011;26642;55.766;37.828;2023-04-28T12:04:50;12.05;;;7.32;;
40635;SDS011;26642;55.766;37.828;2023-04-28T12:07:17;11.52;;;7.43;;
40635;SDS011;26642;55.766;37.828;2023-04-28T12:09:44;9.55;;;8.10;;
40635;SDS011;26642;55.766;37.828;2023-04-28T12:12:31;12.45;;;8.13;;
40635;SDS011;26642;55.766;37.828;2023-04-28T12:14:58;10.80;;;8.18;;
40635;SDS011;26642;55.766;37.828;2023-04-28T12:17:30;9.30;;;7.43;;
40635;SDS011;26642;55.766;37.828;2023-04-28T12:20:02;9.98;;;8.27;;
40635;SDS011;26642;55.766;37.828;2023-04-28T12:22:41;10.50;;;7.85;;
40635;SDS011;26642;55.766;37.828;2023-04-28T12:25:09;9.18;;;7.57;;
40635;SDS011;26642;55.766;37.828;2023-04-28T12:27:37;11.02;;;8.43;;
40635;SDS011;26642;55.766;37.828;2023-04-28T12:32:48;9.30;;;8.15;;
40635;SDS011;26642;55.766;37.828;2023-04-28T12:35:24;10.65;;;7.57;;
40635;SDS011;26642;55.766;37.828;2023-04-28T12:39:00;10.02;;;8.07;;
40635;SDS011;26642;55.766;37.828;2023-04-28T12:41:27;10.88;;;8.48;;
40635;SDS011;26642;55.766;37.828;2023-04-28T12:44:02;9.63;;;7.90;;
40635;SDS011;26642;55.766;37.828;2023-04-28T12:46:40;12.02;;;8.75;;
40635;SDS011;26642;55.766;37.828;2023-04-28T12:49:11;11.48;;;8.90;;
40635;SDS011;26642;55.766;37.828;2023-04-28T12:51:40;10.25;;;8.85;;
40635;SDS011;26642;55.766;37.828;2023-04-28T12:54:54;11.23;;;8.68;;
40635;SDS011;26642;55.766;37.828;2023-04-28T12:57:31;12.15;;;9.80;;
40635;SDS011;26642;55.766;37.828;2023-04-28T13:00:00;13.50;;;9.30;;
40635;SDS011;26642;55.766;37.828;2023-04-28T13:02:27;13.05;;;10.20;;
40635;SDS011;26642;55.766;37.828;2023-04-28T13:04:53;12.30;;;9.63;;
40635;SDS011;26642;55.766;37.828;2023-04-28T13:07:26;17.95;;;10.73;;
40635;SDS011;26642;55.766;37.828;2023-04-28T13:09:54;15.20;;;10.30;;
40635;SDS011;26642;55.766;37.828;2023-04-28T13:12:20;17.30;;;11.98;;
40635;SDS011;26642;55.766;37.828;2023-04-28T13:14:47;14.27;;;11.43;;
40635;SDS011;26642;55.766;37.828;2023-04-28T13:17:13;13.02;;;10.15;;
40635;SDS011;26642;55.766;37.828;2023-04-28T13:19:39;15.68;;;9.55;;
40635;SDS011;26642;55.766;37.828;2023-04-28T13:22:05;13.30;;;9.25;;
40635;SDS011;26642;55.766;37.828;2023-04-28T13:24:33;14.38;;;8.98;;
40635;SDS011;26642;55.766;37.828;2023-04-28T13:27:00;10.75;;;8.18;;
40635;SDS011;26642;55.766;37.828;2023-04-28T13:29:33;10.73;;;8.68;;
40635;SDS011;26642;55.766;37.828;2023-04-28T13:32:01;12.02;;;8.80;;
40635;SDS011;26642;55.766;37.828;2023-04-28T13:34:27;10.05;;;8.82;;
40635;SDS011;26642;55.766;37.828;2023-04-28T13:36:53;10.48;;;8.90;;
40635;SDS011;26642;55.766;37.828;2023-04-28T13:39:20;13.38;;;8.55;;
40635;SDS011;26642;55.766;37.828;2023-04-28T13:41:46;12.57;;;6.90;;
40635;SDS011;26642;55.766;37.828;2023-04-28T13:44:16;10.60;;;7.18;;
40635;SDS011;26642;55.766;37.828;2023-04-28T13:46:42;9.95;;;6.78;;
40635;SDS011;26642;55.766;37.828;2023-04-28T13:49:08;9.00;;;6.70;;
40635;SDS011;26642;55.766;37.828;2023-04-28T13:51:34;7.43;;;6.38;;
40635;SDS011;26642;55.766;37.828;2023-04-28T13:54:00;11.50;;;7.65;;
40635;SDS011;26642;55.766;37.828;2023-04-28T13:56:32;8.48;;;7.10;;
40635;SDS011;26642;55.766;37.828;2023-04-28T13:59:00;10.93;;;7.45;;
40635;SDS011;26642;55.766;37.828;2023-04-28T14:01:26;10.30;;;7.63;;
40635;SDS011;26642;55.766;37.828;2023-04-28T14:03:53;8.77;;;7.63;;
40635;SDS011;26642;55.766;37.828;2023-04-28T14:06:19;12.02;;;7.47;;
40635;SDS011;26642;55.766;37.828;2023-04-28T14:08:45;9.38;;;6.95;;
40635;SDS011;26642;55.766;37.828;2023-04-28T14:11:12;8.75;;;7.70;;
40635;SDS011;26642;55.766;37.828;2023-04-28T14:13:38;9.27;;;7.75;;
40635;SDS011;26642;55.766;37.828;2023-04-28T14:16:04;7.10;;;6.18;;
40635;SDS011;26642;55.766;37.828;2023-04-28T14:18:30;8.32;;;5.68;;
40635;SDS011;26642;55.766;37.828;2023-04-28T14:20:58;9.80;;;5.57;;
40635;SDS011;26642;55.766;37.828;2023-04-28T14:23:24;7.93;;;6.05;;
40635;SDS011;26642;55.766;37.828;2023-04-28T14:25:53;6.13;;;5.15;;
40635;SDS011;26642;55.766;37.828;2023-04-28T14:28:22;5.90;;;4.93;;
40635;SDS011;26642;55.766;37.828;2023-04-28T14:30:48;6.30;;;4.80;;
40635;SDS011;26642;55.766;37.828;2023-04-28T14:33:14;7.72;;;4.55;;
40635;SDS011;26642;55.766;37.828;2023-04-28T14:35:40;6.32;;;4.13;;
40635;SDS011;26642;55.766;37.828;2023-04-28T14:38:06;12.55;;;4.25;;
40635;SDS011;26642;55.766;37.828;2023-04-28T14:40:33;13.68;;;4.40;;
40635;SDS011;26642;55.766;37.828;2023-04-28T14:42:58;8.35;;;4.07;;
40635;SDS011;26642;55.766;37.828;2023-04-28T14:45:25;9.05;;;3.95;;
40635;SDS011;26642;55.766;37.828;2023-04-28T14:47:51;4.60;;;4.20;;
40635;SDS011;26642;55.766;37.828;2023-04-28T14:50:18;5.80;;;4.00;;
40635;SDS011;26642;55.766;37.828;2023-04-28T14:52:44;4.10;;;3.47;;
40635;SDS011;26642;55.766;37.828;2023-04-28T14:55:09;8.38;;;4.30;;
40635;SDS011;26642;55.766;37.828;2023-04-28T14:57:35;6.63;;;4.53;;
40635;SDS011;26642;55.766;37.828;2023-04-28T15:00:06;4.15;;;3.40;;
40635;SDS011;26642;55.766;37.828;2023-04-28T15:02:33;4.15;;;3.45;;
40635;SDS011;26642;55.766;37.828;2023-04-28T15:05:00;6.43;;;3.88;;
40635;SDS011;26642;55.766;37.828;2023-04-28T15:07:26;6.20;;;4.00;;
40635;SDS011;26642;55.766;37.828;2023-04-28T15:09:58;4.00;;;3.67;;
40635;SDS011;26642;55.766;37.828;2023-04-28T15:12:24;5.60;;;3.80;;
40635;SDS011;26642;55.766;37.828;2023-04-28T15:14:51;5.80;;;4.00;;
40635;SDS011;26642;55.766;37.828;2023-04-28T15:17:18;5.07;;;3.67;;